createdAt,value
2023-02-25T00:02:04.034Z,4.07
2023-02-25T00:06:08.115Z,4.04
2023-02-25T00:10:12.004Z,3.92
2023-02-25T00:14:14.104Z,3.74
2023-02-25T00:18:16.081Z,3.92
2023-02-25T00:22:18.071Z,3.88
2023-02-25T00:26:21.165Z,3.84
2023-02-25T00:30:23.389Z,3.76
2023-02-25T00:34:26.230Z,3.82
2023-02-25T00:38:28.165Z,3.77
2023-02-25T00:42:30.163Z,3.82
2023-02-25T00:46:34.379Z,3.79
2023-02-25T00:50:36.694Z,3.92
2023-02-25T00:54:39.555Z,3.87
2023-02-25T00:58:43.400Z,3.88
2023-02-25T01:02:45.988Z,3.89
2023-02-25T01:06:47.957Z,3.81
2023-02-25T01:10:50.053Z,3.78
2023-02-25T01:14:55.532Z,3.81
2023-02-25T01:19:02.182Z,3.93
2023-02-25T01:23:03.977Z,3.87
2023-02-25T01:27:05.986Z,3.75
2023-02-25T01:31:17.013Z,3.71
2023-02-25T01:35:19.967Z,3.76
2023-02-25T01:39:25.780Z,3.58
2023-02-25T01:43:28.816Z,3.59
2023-02-25T01:47:37.943Z,3.66
2023-02-25T01:51:40.017Z,3.50
2023-02-25T01:55:43.058Z,3.52
2023-02-25T01:59:47.421Z,3.57
2023-02-25T02:03:51.684Z,3.60
2023-02-25T02:07:53.789Z,3.56
2023-02-25T02:12:05.524Z,3.50
2023-02-25T02:16:37.094Z,3.51
2023-02-25T02:20:45.170Z,3.50
2023-02-25T02:25:25.076Z,3.53
2023-02-25T02:29:54.263Z,3.60
2023-02-25T02:34:06.634Z,3.57
2023-02-25T02:38:26.032Z,3.49
2023-02-25T02:42:49.591Z,3.56
2023-02-25T02:46:57.482Z,3.52
2023-02-25T02:51:02.156Z,3.50
2023-02-25T02:55:10.715Z,3.47
2023-02-25T02:59:21.698Z,3.52
2023-02-25T03:03:36.251Z,3.56
2023-02-25T03:07:43.348Z,3.63
2023-02-25T03:11:45.760Z,3.48
2023-02-25T03:15:50.057Z,3.53
2023-02-25T03:20:07.939Z,3.45
2023-02-25T03:24:22.288Z,3.53
2023-02-25T03:28:30.592Z,3.48
2023-02-25T03:32:37.565Z,3.51
2023-02-25T03:36:48.350Z,3.59
2023-02-25T03:40:53.409Z,3.51
2023-02-25T03:45:00.682Z,3.53
2023-02-25T03:49:06.610Z,3.40
2023-02-25T03:53:08.808Z,3.45
2023-02-25T03:57:39.765Z,3.32
2023-02-25T04:01:44.463Z,3.34
2023-02-25T04:05:46.593Z,3.47
2023-02-25T04:09:48.700Z,3.42
2023-02-25T04:13:50.308Z,3.16
2023-02-25T04:17:53.289Z,3.09
2023-02-25T04:21:55.504Z,2.93
2023-02-25T04:25:57.385Z,2.98
2023-02-25T04:29:59.677Z,2.92
2023-02-25T04:34:01.633Z,2.62
2023-02-25T04:38:03.667Z,2.65
2023-02-25T04:42:05.777Z,2.60
2023-02-25T04:46:07.727Z,2.61
2023-02-25T04:50:10.843Z,2.55
2023-02-25T04:54:13.188Z,2.39
2023-02-25T04:58:15.144Z,2.49
2023-02-25T05:02:17.136Z,2.36
2023-02-25T05:06:19.134Z,2.18
2023-02-25T05:10:21.057Z,2.21
2023-02-25T05:14:23.033Z,2.38
2023-02-25T05:18:25.086Z,2.18
2023-02-25T05:22:28.048Z,2.39
2023-02-25T05:26:30.128Z,2.29
2023-02-25T05:30:32.084Z,2.24
2023-02-25T05:34:35.298Z,2.24
2023-02-25T05:38:37.049Z,2.33
2023-02-25T05:42:39.027Z,2.32
2023-02-25T05:46:41.050Z,2.22
2023-02-25T05:50:43.939Z,2.33
2023-02-25T05:54:45.975Z,2.37
2023-02-25T05:58:48.753Z,2.34
2023-02-25T06:02:50.724Z,2.43
2023-02-25T06:06:52.756Z,2.59
2023-02-25T06:10:54.721Z,2.47
2023-02-25T06:14:56.998Z,2.42
2023-02-25T06:19:01.259Z,2.60
2023-02-25T06:23:03.804Z,2.47
2023-02-25T06:27:05.846Z,2.53
2023-02-25T06:31:12.470Z,2.61
2023-02-25T06:35:14.798Z,2.61
2023-02-25T06:39:16.694Z,2.67
2023-02-25T06:43:18.737Z,2.73
2023-02-25T06:47:22.186Z,2.79
2023-02-25T06:51:24.244Z,2.64
2023-02-25T06:55:26.774Z,2.67
2023-02-25T06:59:28.852Z,2.88
2023-02-25T07:03:30.915Z,2.85
2023-02-25T07:07:32.880Z,2.87
2023-02-25T07:11:36.606Z,2.66
2023-02-25T07:15:38.683Z,2.66
2023-02-25T07:19:40.696Z,2.84
2023-02-25T07:23:42.933Z,2.96
2023-02-25T07:27:45.105Z,2.85
2023-02-25T07:31:47.733Z,2.80
2023-02-25T07:35:49.798Z,2.83
2023-02-25T07:39:52.129Z,3.00
2023-02-25T07:43:54.756Z,2.88
2023-02-25T07:47:56.683Z,2.97
2023-02-25T07:51:58.667Z,3.03
2023-02-25T07:56:01.324Z,2.95
2023-02-25T08:00:06.883Z,3.09
2023-02-25T08:04:14.322Z,3.19
2023-02-25T08:08:16.473Z,3.24
2023-02-25T08:12:18.470Z,3.39
2023-02-25T08:16:21.439Z,3.36
2023-02-25T08:20:24.421Z,3.33
2023-02-25T08:24:26.468Z,3.48
2023-02-25T08:28:34.389Z,3.35
2023-02-25T08:32:38.450Z,3.30
2023-02-25T08:36:40.628Z,3.51
2023-02-25T08:40:43.312Z,3.61
2023-02-25T08:44:45.381Z,3.48
2023-02-25T08:48:51.728Z,3.56
2023-02-25T08:52:53.667Z,3.65
2023-02-25T08:56:57.198Z,3.95
2023-02-25T09:00:59.946Z,3.94
2023-02-25T09:05:01.995Z,3.88
2023-02-25T09:09:05.494Z,4.21
2023-02-25T09:13:07.672Z,4.25
2023-02-25T09:17:10.094Z,4.16
2023-02-25T09:21:13.767Z,4.19
2023-02-25T09:25:15.768Z,4.09
2023-02-25T09:29:17.378Z,4.01
2023-02-25T09:33:19.357Z,4.18
2023-02-25T09:37:21.939Z,4.36
2023-02-25T09:41:46.722Z,4.60
2023-02-25T09:45:53.963Z,4.66
2023-02-25T09:50:02.244Z,4.78
2023-02-25T09:54:25.065Z,5.11
2023-02-25T09:58:36.255Z,5.18
2023-02-25T10:02:52.762Z,5.44
2023-02-25T10:06:56.110Z,5.53
2023-02-25T10:11:09.957Z,5.46
2023-02-25T10:15:26.076Z,5.36
2023-02-25T10:19:59.747Z,4.60
2023-02-25T10:24:28.270Z,3.63
2023-02-25T10:28:32.129Z,4.20
2023-02-25T10:32:36.559Z,4.39
2023-02-25T10:36:46.101Z,4.60
2023-02-25T10:40:48.117Z,4.80
2023-02-25T10:44:51.298Z,5.11
2023-02-25T10:48:57.951Z,4.96
2023-02-25T10:53:11.786Z,4.70
2023-02-25T10:57:17.161Z,3.75
2023-02-25T11:01:23.380Z,3.41
2023-02-25T11:05:33.556Z,3.31
2023-02-25T11:09:36.951Z,3.41
2023-02-25T11:13:39.164Z,3.82
2023-02-25T11:17:44.264Z,3.96
2023-02-25T11:21:47.197Z,3.99
2023-02-25T11:25:51.469Z,4.10
2023-02-25T11:29:58.692Z,4.29
2023-02-25T11:34:04.392Z,4.53
2023-02-25T11:38:24.481Z,4.10
2023-02-25T11:42:30.082Z,4.07
2023-02-25T11:46:33.978Z,4.25
2023-02-25T11:50:55.173Z,3.45
2023-02-25T11:55:25.098Z,3.66
2023-02-25T11:59:34.164Z,3.94
2023-02-25T12:03:43.531Z,3.89
2023-02-25T12:08:12.597Z,3.98
2023-02-25T12:12:50.129Z,4.72
2023-02-25T12:17:25.735Z,4.88
2023-02-25T12:21:58.913Z,4.72
2023-02-25T12:26:22.195Z,4.84
2023-02-25T12:30:50.604Z,4.47
2023-02-25T12:35:15.394Z,3.81
2023-02-25T12:39:45.595Z,3.92
2023-02-25T12:44:05.723Z,3.91
2023-02-25T12:48:37.048Z,3.82
2023-02-25T12:53:00.671Z,3.91
2023-02-25T12:57:02.583Z,3.92
2023-02-25T13:01:41.639Z,4.03
2023-02-25T13:06:08.372Z,3.95
2023-02-25T13:10:34.392Z,3.95
2023-02-25T13:15:09.272Z,3.85
2023-02-25T13:19:56.352Z,3.29
2023-02-25T13:24:21.175Z,3.12
2023-02-25T13:29:01.801Z,3.15
2023-02-25T13:33:28.567Z,3.05
2023-02-25T13:38:12.408Z,3.48
2023-02-25T13:42:55.935Z,3.67
2023-02-25T13:47:27.528Z,4.72
2023-02-25T13:51:48.395Z,4.90
2023-02-25T13:56:14.125Z,5.03
2023-02-25T14:00:58.702Z,4.58
2023-02-25T14:05:25.724Z,4.71
2023-02-25T14:09:30.676Z,4.66
2023-02-25T14:14:02.044Z,4.74
2023-02-25T14:18:12.256Z,4.37
2023-02-25T14:22:24.057Z,4.10
2023-02-25T14:26:54.112Z,3.99
2023-02-25T14:31:17.788Z,3.57
2023-02-25T14:35:44.720Z,3.84
2023-02-25T14:40:00.188Z,3.93
2023-02-25T14:44:11.174Z,4.02
2023-02-25T14:48:37.370Z,3.88
2023-02-25T14:52:47.638Z,4.01
2023-02-25T14:57:07.267Z,4.20
2023-02-25T15:01:24.765Z,4.08
2023-02-25T15:05:51.610Z,3.88
2023-02-25T15:10:41.873Z,3.69
2023-02-25T15:15:06.724Z,3.73
2023-02-25T15:19:24.486Z,3.69
2023-02-25T15:23:50.487Z,3.90
2023-02-25T15:27:57.108Z,3.84
2023-02-25T15:32:10.601Z,3.65
2023-02-25T15:36:15.544Z,3.28
2023-02-25T15:40:17.471Z,3.32
2023-02-25T15:44:19.114Z,3.22
2023-02-25T15:48:29.448Z,3.19
2023-02-25T15:52:55.300Z,3.33
2023-02-25T15:57:01.237Z,3.25
2023-02-25T16:01:05.714Z,3.24
2023-02-25T16:05:28.131Z,3.37
2023-02-25T16:09:32.345Z,3.43
2023-02-25T16:13:35.753Z,3.32
2023-02-25T16:17:37.867Z,3.25
2023-02-25T16:21:51.784Z,3.23
2023-02-25T16:26:24.545Z,3.42
2023-02-25T16:30:44.929Z,3.32
2023-02-25T16:34:52.167Z,3.15
2023-02-25T16:39:10.043Z,2.96
2023-02-25T16:43:15.923Z,2.97
2023-02-25T16:47:33.746Z,3.10
2023-02-25T16:51:44.922Z,2.99
2023-02-25T16:55:47.386Z,3.04
2023-02-25T16:59:51.741Z,2.96
2023-02-25T17:04:01.553Z,3.10
2023-02-25T17:08:14.287Z,3.02
2023-02-25T17:12:25.475Z,2.97
2023-02-25T17:16:46.100Z,3.04
2023-02-25T17:20:48.255Z,3.11
2023-02-25T17:24:53.050Z,3.04
2023-02-25T17:29:01.647Z,3.03
2023-02-25T17:33:04.937Z,3.15
2023-02-25T17:37:09.117Z,3.12
2023-02-25T17:41:19.061Z,3.02
2023-02-25T17:45:39.851Z,3.21
2023-02-25T17:49:42.180Z,3.15
2023-02-25T17:53:50.665Z,3.08
2023-02-25T17:57:58.574Z,3.17
2023-02-25T18:02:02.166Z,3.20
2023-02-25T18:06:04.263Z,3.18
2023-02-25T18:10:26.356Z,3.11
2023-02-25T18:14:37.132Z,2.65
2023-02-25T18:18:40.373Z,2.53
2023-02-25T18:22:48.225Z,2.36
2023-02-25T18:27:04.105Z,2.09
2023-02-25T18:31:06.351Z,1.78
2023-02-25T18:35:09.729Z,1.84
2023-02-25T18:39:13.101Z,1.78
2023-02-25T18:43:20.635Z,1.85
2023-02-25T18:47:22.695Z,1.98
2023-02-25T18:51:24.319Z,2.03
2023-02-25T18:55:29.872Z,2.17
2023-02-25T18:59:31.900Z,2.15
2023-02-25T19:03:39.105Z,2.33
2023-02-25T19:07:42.840Z,2.37
2023-02-25T19:11:44.798Z,2.48
2023-02-25T19:15:46.827Z,2.63
2023-02-25T19:19:48.850Z,2.66
2023-02-25T19:23:51.828Z,2.72
2023-02-25T19:27:55.854Z,2.84
2023-02-25T19:31:58.534Z,2.78
2023-02-25T19:36:02.521Z,2.86
2023-02-25T19:40:07.023Z,2.90
2023-02-25T19:44:09.367Z,2.94
2023-02-25T19:48:11.557Z,2.91
2023-02-25T19:52:15.159Z,2.90
2023-02-25T19:56:17.236Z,2.93
2023-02-25T20:00:22.614Z,2.97
2023-02-25T20:04:25.467Z,2.94
2023-02-25T20:08:27.586Z,2.89
2023-02-25T20:12:29.670Z,2.86
2023-02-25T20:16:32.766Z,2.74
2023-02-25T20:20:34.895Z,2.78
2023-02-25T20:24:36.968Z,2.74
2023-02-25T20:28:39.586Z,2.59
2023-02-25T20:32:43.688Z,2.69
2023-02-25T20:36:53.367Z,2.61
2023-02-25T20:40:55.557Z,2.63
2023-02-25T20:44:58.837Z,2.60
2023-02-25T20:49:01.075Z,2.63
2023-02-25T20:53:03.419Z,2.57
2023-02-25T20:57:05.486Z,2.53
2023-02-25T21:01:07.697Z,2.71
2023-02-25T21:05:09.803Z,2.55
2023-02-25T21:09:11.759Z,2.39
2023-02-25T21:13:15.602Z,2.42
2023-02-25T21:17:18.223Z,2.30
2023-02-25T21:21:21.576Z,2.30
2023-02-25T21:25:23.469Z,2.41
2023-02-25T21:29:25.614Z,2.24
2023-02-25T21:33:27.613Z,2.09
2023-02-25T21:37:30.391Z,2.24
2023-02-25T21:41:32.602Z,2.11
2023-02-25T21:45:34.528Z,2.10
2023-02-25T21:49:36.472Z,2.15
2023-02-25T21:53:38.470Z,2.05
2023-02-25T21:57:40.352Z,2.24
2023-02-25T22:01:42.537Z,2.25
2023-02-25T22:05:46.407Z,2.11
2023-02-25T22:09:48.348Z,2.14
2023-02-25T22:13:50.703Z,2.11
2023-02-25T22:17:52.734Z,2.05
2023-02-25T22:21:54.755Z,1.91
2023-02-25T22:26:01.880Z,1.90
2023-02-25T22:30:04.260Z,1.91
2023-02-25T22:34:06.724Z,1.89
2023-02-25T22:38:09.849Z,1.86
2023-02-25T22:42:13.356Z,1.97
2023-02-25T22:46:38.100Z,1.77
2023-02-25T22:50:43.566Z,1.71
2023-02-25T22:54:46.269Z,1.81
2023-02-25T22:58:48.242Z,1.73
2023-02-25T23:02:50.194Z,1.79
2023-02-25T23:06:54.129Z,1.78
2023-02-25T23:10:56.393Z,1.55
2023-02-25T23:14:58.376Z,1.64
2023-02-25T23:19:03.487Z,1.55
2023-02-25T23:23:09.274Z,1.45
2023-02-25T23:27:11.217Z,1.52
2023-02-25T23:31:25.200Z,1.48
2023-02-25T23:35:27.475Z,1.36
2023-02-25T23:39:29.618Z,1.32
2023-02-25T23:43:31.584Z,1.32
2023-02-25T23:47:33.370Z,1.14
2023-02-25T23:51:36.503Z,1.22
2023-02-25T23:55:38.529Z,1.22
2023-02-25T23:59:40.710Z,1.07
